Clipper Saga — LAFY6 — position and weather

sailwx.info

Track history (hours):
 
Tides and Currents Weather Stations Pressure Air Temp Water Temp Dewpoint Dewpoint Depression Visibility Wind Speed Wind Dir Waves Ship Positions

Clipper Saga

Last reported at 2015-Jul-07 08:33 UTC. Time now 2015-Jul-07 08:55 UTC.
Position N 51°28' E 003°31'.

Length 89 m; draft 5.9 m.

Type: Ship (hazmat cat C). MMSI: 246657008.

Date/timePositionNaut miles runAvg speedWind from/ knotsBaromVisibWave heightAir tempDewpointWater temp
2015-Jul-07 08:33N 51°28' E 003°31'71 8.9
2015-Jul-07 00:33N 52°38' E 003°32'1110.8
2015-Jul-06 23:33N 52°47' E 003°44'1111.2
2015-Jul-06 22:33N 52°55' E 003°56'1111.0
2015-Jul-06 21:34N 53°03' E 004°09'1010.2
2015-Jul-06 20:34N 53°09' E 004°22'12 9.2
2015-Jul-06 19:15N 53°20' E 004°31'7 9.6
2015-Jul-06 18:33N 53°26' E 004°36'1010.4
2015-Jul-06 17:34N 53°31' E 004°51'1211.9
2015-Jul-06 16:33N 53°36' E 005°09'1211.9
2015-Jul-06 15:33N 53°40' E 005°28'1111.4
2015-Jul-06 14:32N 53°43' E 005°47'49 9.8
2015-Jul-06 09:30N 53°56' E 007°07'1010.1
2015-Jul-06 08:33N 53°59' E 007°23'1111.0
2015-Jul-06 07:33N 54°01' E 007°41'1111.6
2015-Jul-06 06:33N 54°01' E 008°01'10 9.7
2015-Jul-06 05:33N 53°60' E 008°17'1211.8
2015-Jul-06 04:33N 53°58' E 008°37'10 9.9
2015-Jul-06 03:33N 53°51' E 008°48'9 8.8
2015-Jul-06 02:33N 53°52' E 009°03'4 4.2
2015-Jul-06 01:33N 53°54' E 009°10'1 1.1
2015-Jul-06 00:33N 53°55' E 009°11'3 2.9
2015-Jul-05 23:33N 53°57' E 009°14'12 8.4
2015-Jul-05 22:08N 54°08' E 009°20'5 8.6
2015-Jul-05 21:33N 54°11' E 009°28'4 4.0
2015-Jul-05 20:33N 54°12' E 009°34'6 6.4
2015-Jul-05 19:33N 54°18' E 009°41'8 7.8
2015-Jul-05 18:33N 54°22' E 009°52'7 7.3
2015-Jul-05 17:33N 54°22' E 010°05'3 3.3
2015-Jul-05 16:33N 54°22' E 010°10'7 7.3
2015-Jul-05 15:33N 54°29' E 010°16'1110.7
2015-Jul-05 14:33N 54°34' E 010°32'1211.0
2015-Jul-05 13:30N 54°35' E 010°52'1111.8
2015-Jul-05 12:33N 54°36' E 011°11'1211.6
2015-Jul-05 11:33N 54°31' E 011°29'1111.2
2015-Jul-05 10:33N 54°27' E 011°47'1111.2
2015-Jul-05 09:33N 54°27' E 012°06'1010.4
2015-Jul-05 08:33N 54°36' E 012°15'1211.3
2015-Jul-05 07:32N 54°43' E 012°31'1111.4
2015-Jul-05 06:33N 54°48' E 012°47'1211.4
2015-Jul-05 05:31N 54°52' E 013°07'1111.5
2015-Jul-05 04:32N 54°56' E 013°25'1111.4
2015-Jul-05 03:33N 54°60' E 013°44'1111.3
2015-Jul-05 02:33N 55°03' E 014°02'1111.1
2015-Jul-05 01:33N 55°12' E 014°15'1111.4
2015-Jul-05 00:33N 55°21' E 014°27'1111.3
2015-Jul-04 23:33N 55°28' E 014°42'1111.3
2015-Jul-04 22:33N 55°34' E 014°59'1111.4
2015-Jul-04 21:32N 55°40' E 015°17'1211.6
2015-Jul-04 20:28N 55°46' E 015°36'1111.4
2015-Jul-04 19:33N 55°51' E 015°52'28511.0
2015-Jul-03 17:33N 59°18' E 021°59'1210.9
2015-Jul-03 16:27N 59°25' E 022°18'1010.9
2015-Jul-03 15:33N 59°30' E 022°34'1110.8
2015-Jul-03 14:32N 59°33' E 022°54'1110.9
2015-Jul-03 13:33N 59°36' E 023°15'1110.7
2015-Jul-03 12:33N 59°39' E 023°35'1110.8
2015-Jul-03 11:33N 59°42' E 023°56'3310.3
2015-Jul-03 08:18N 59°50' E 024°60'2910.5
2015-Jul-03 05:34N 59°59' E 025°55'1111.1
2015-Jul-03 04:34N 60°06' E 026°12'1110.8
2015-Jul-03 03:34N 60°14' E 026°25'1010.3
2015-Jul-03 02:33N 60°21' E 026°41'8 8.4
2015-Jul-03 01:33N 60°26' E 026°55'0 0.0
2015-Jul-03 00:32N 60°26' E 026°55'0 0.0
2015-Jul-02 23:29N 60°26' E 026°55'0 0.0
2015-Jul-02 22:32N 60°26' E 026°55'0 0.0
2015-Jul-02 21:29N 60°26' E 026°55'0 0.0
2015-Jul-02 20:29N 60°26' E 026°55'0 0.0
2015-Jul-02 11:08N 60°26' E 026°55'0 0.0
2015-Jul-02 10:32N 60°26' E 026°55'0 0.0
2015-Jul-02 09:33N 60°26' E 026°55'8 8.2
2015-Jul-02 08:33N 60°22' E 026°41'1211.7
2015-Jul-02 07:33N 60°13' E 026°24'9 8.9
2015-Jul-02 06:33N 60°06' E 026°14'12 9.3
2015-Jul-02 05:18N 59°58' E 025°56'10 8.2
2015-Jul-02 04:08N 59°52' E 025°42'6 9.4
2015-Jul-02 03:33N 59°51' E 025°31'1110.4
2015-Jul-02 02:27N 59°49' E 025°09'1111.0
2015-Jul-02 01:25N 59°46' E 024°47'1011.0
2015-Jul-02 00:33N 59°44' E 024°28'1211.6
2015-Jul-01 23:33N 59°41' E 024°06'1211.7
2015-Jul-01 22:33N 59°37' E 023°44'1211.8
2015-Jul-01 21:33N 59°34' E 023°22'1211.8
2015-Jul-01 20:33N 59°30' E 022°60'1211.8
2015-Jul-01 19:33N 59°27' E 022°38'1211.6
2015-Jul-01 18:33N 59°21' E 022°18'1212.1
2015-Jul-01 17:33N 59°24' E 021°56'1312.5
2015-Jul-01 16:33N 59°25' E 021°31'  
Track history (hours):
 
Tides and Currents Weather Stations Pressure Air Temp Water Temp Dewpoint Dewpoint Depression Visibility Wind Speed Wind Dir Waves Ship Positions

Clipper Saga

Last reported at 2015-Jul-07 08:33 UTC. Time now 2015-Jul-07 08:55 UTC.
Position N 51°28' E 003°31'.

Length 89 m; draft 5.9 m.

Type: Ship (hazmat cat C). MMSI: 246657008.

Date/timePositionNaut miles runAvg speedWind from/ knotsBaromVisibWave heightAir tempDewpointWater temp
2015-Jul-07 08:33N 51°28' E 003°31'71 8.9
2015-Jul-07 00:33N 52°38' E 003°32'1110.8
2015-Jul-06 23:33N 52°47' E 003°44'1111.2
2015-Jul-06 22:33N 52°55' E 003°56'1111.0
2015-Jul-06 21:34N 53°03' E 004°09'1010.2
2015-Jul-06 20:34N 53°09' E 004°22'12 9.2
2015-Jul-06 19:15N 53°20' E 004°31'7 9.6
2015-Jul-06 18:33N 53°26' E 004°36'1010.4
2015-Jul-06 17:34N 53°31' E 004°51'1211.9
2015-Jul-06 16:33N 53°36' E 005°09'1211.9
2015-Jul-06 15:33N 53°40' E 005°28'1111.4
2015-Jul-06 14:32N 53°43' E 005°47'49 9.8
2015-Jul-06 09:30N 53°56' E 007°07'1010.1
2015-Jul-06 08:33N 53°59' E 007°23'1111.0
2015-Jul-06 07:33N 54°01' E 007°41'1111.6
2015-Jul-06 06:33N 54°01' E 008°01'10 9.7
2015-Jul-06 05:33N 53°60' E 008°17'1211.8
2015-Jul-06 04:33N 53°58' E 008°37'10 9.9
2015-Jul-06 03:33N 53°51' E 008°48'9 8.8
2015-Jul-06 02:33N 53°52' E 009°03'4 4.2
2015-Jul-06 01:33N 53°54' E 009°10'1 1.1
2015-Jul-06 00:33N 53°55' E 009°11'3 2.9
2015-Jul-05 23:33N 53°57' E 009°14'12 8.4
2015-Jul-05 22:08N 54°08' E 009°20'5 8.6
2015-Jul-05 21:33N 54°11' E 009°28'4 4.0
2015-Jul-05 20:33N 54°12' E 009°34'6 6.4
2015-Jul-05 19:33N 54°18' E 009°41'8 7.8
2015-Jul-05 18:33N 54°22' E 009°52'7 7.3
2015-Jul-05 17:33N 54°22' E 010°05'3 3.3
2015-Jul-05 16:33N 54°22' E 010°10'7 7.3
2015-Jul-05 15:33N 54°29' E 010°16'1110.7
2015-Jul-05 14:33N 54°34' E 010°32'1211.0
2015-Jul-05 13:30N 54°35' E 010°52'1111.8
2015-Jul-05 12:33N 54°36' E 011°11'1211.6
2015-Jul-05 11:33N 54°31' E 011°29'1111.2
2015-Jul-05 10:33N 54°27' E 011°47'1111.2
2015-Jul-05 09:33N 54°27' E 012°06'1010.4
2015-Jul-05 08:33N 54°36' E 012°15'1211.3
2015-Jul-05 07:32N 54°43' E 012°31'1111.4
2015-Jul-05 06:33N 54°48' E 012°47'1211.4
2015-Jul-05 05:31N 54°52' E 013°07'1111.5
2015-Jul-05 04:32N 54°56' E 013°25'1111.4
2015-Jul-05 03:33N 54°60' E 013°44'1111.3
2015-Jul-05 02:33N 55°03' E 014°02'1111.1
2015-Jul-05 01:33N 55°12' E 014°15'1111.4
2015-Jul-05 00:33N 55°21' E 014°27'1111.3
2015-Jul-04 23:33N 55°28' E 014°42'1111.3
2015-Jul-04 22:33N 55°34' E 014°59'1111.4
2015-Jul-04 21:32N 55°40' E 015°17'1211.6
2015-Jul-04 20:28N 55°46' E 015°36'1111.4
2015-Jul-04 19:33N 55°51' E 015°52'28511.0
2015-Jul-03 17:33N 59°18' E 021°59'1210.9
2015-Jul-03 16:27N 59°25' E 022°18'1010.9
2015-Jul-03 15:33N 59°30' E 022°34'1110.8
2015-Jul-03 14:32N 59°33' E 022°54'1110.9
2015-Jul-03 13:33N 59°36' E 023°15'1110.7
2015-Jul-03 12:33N 59°39' E 023°35'1110.8
2015-Jul-03 11:33N 59°42' E 023°56'3310.3
2015-Jul-03 08:18N 59°50' E 024°60'2910.5
2015-Jul-03 05:34N 59°59' E 025°55'1111.1
2015-Jul-03 04:34N 60°06' E 026°12'1110.8
2015-Jul-03 03:34N 60°14' E 026°25'1010.3
2015-Jul-03 02:33N 60°21' E 026°41'8 8.4
2015-Jul-03 01:33N 60°26' E 026°55'0 0.0
2015-Jul-03 00:32N 60°26' E 026°55'0 0.0
2015-Jul-02 23:29N 60°26' E 026°55'0 0.0
2015-Jul-02 22:32N 60°26' E 026°55'0 0.0
2015-Jul-02 21:29N 60°26' E 026°55'0 0.0
2015-Jul-02 20:29N 60°26' E 026°55'0 0.0
2015-Jul-02 11:08N 60°26' E 026°55'0 0.0
2015-Jul-02 10:32N 60°26' E 026°55'0 0.0
2015-Jul-02 09:33N 60°26' E 026°55'8 8.2
2015-Jul-02 08:33N 60°22' E 026°41'1211.7
2015-Jul-02 07:33N 60°13' E 026°24'9 8.9
2015-Jul-02 06:33N 60°06' E 026°14'12 9.3
2015-Jul-02 05:18N 59°58' E 025°56'10 8.2
2015-Jul-02 04:08N 59°52' E 025°42'6 9.4
2015-Jul-02 03:33N 59°51' E 025°31'1110.4
2015-Jul-02 02:27N 59°49' E 025°09'1111.0
2015-Jul-02 01:25N 59°46' E 024°47'1011.0
2015-Jul-02 00:33N 59°44' E 024°28'1211.6
2015-Jul-01 23:33N 59°41' E 024°06'1211.7
2015-Jul-01 22:33N 59°37' E 023°44'1211.8
2015-Jul-01 21:33N 59°34' E 023°22'1211.8
2015-Jul-01 20:33N 59°30' E 022°60'1211.8
2015-Jul-01 19:33N 59°27' E 022°38'1211.6
2015-Jul-01 18:33N 59°21' E 022°18'1212.1
2015-Jul-01 17:33N 59°24' E 021°56'1312.5
2015-Jul-01 16:33N 59°25' E 021°31'  

Dump ship's entire track history